Scm Elpida — V2OI1 — position and weather

sailwx.info

Track history (hours):
 
Tides and Currents Weather Stations Pressure Air Temp Water Temp Dewpoint Dewpoint Depression Visibility Wind Speed Wind Dir Waves Ship Positions

Scm Elpida

Last reported at 2017-Oct-04 12:00 UTC. Time now 2017-Nov-20 13:29 UTC.
Position N 25°25' W 079°34'.
Warning: this ship's position is 47 days out of date.

Length 108 m; draft 5.6 m.

Type: Cargo ship. MMSI: 304188000.

Date/timePositionNaut miles runAvg speedWind from/ knotsBaromVisibWave heightAir tempDewpointWater temp
2017-Oct-04 12:00N 25°25' W 079°34'510.1
2017-Oct-04 11:30N 25°30' W 079°36'5 9.9
2017-Oct-04 10:59N 25°35' W 079°37'5 9.4
2017-Oct-04 10:30N 25°39' W 079°38'4 8.3
2017-Oct-04 10:00N 25°43' W 079°39'4 7.4
2017-Oct-04 09:30N 25°47' W 079°39'4 7.3
2017-Oct-04 09:00N 25°50' W 079°40'3 6.6
2017-Oct-04 08:30N 25°54' W 079°41'4 7.4
2017-Oct-04 08:00N 25°56' W 079°45'4 7.8
2017-Oct-04 07:30N 25°58' W 079°48'4 8.3
2017-Oct-04 07:00N 25°60' W 079°52'4 8.9
2017-Oct-04 06:30N 26°02' W 079°57'5 9.4
2017-Oct-04 06:00N 26°04' W 080°01'4 8.1
2017-Oct-04 05:30N 26°06' W 080°05'1 2.5
2017-Oct-04 04:57N 26°05' W 080°07'0 0.0
2017-Oct-04 04:24N 26°05' W 080°07'0 0.0
2017-Oct-04 04:00N 26°05' W 080°07'0 0.0
2017-Oct-04 03:30N 26°05' W 080°07'0 0.0
2017-Oct-04 02:57N 26°05' W 080°07'0 0.0
2017-Oct-04 02:27N 26°05' W 080°07'0 0.0
2017-Oct-04 02:00N 26°05' W 080°07'0 0.0
2017-Oct-04 01:27N 26°05' W 080°07'0 0.0
2017-Oct-04 01:00N 26°05' W 080°07'0 0.0
2017-Oct-04 00:30N 26°05' W 080°07'0 0.0
2017-Oct-03 23:59N 26°05' W 080°07'0 0.0
2017-Oct-03 23:29N 26°05' W 080°07'0 0.0
2017-Oct-03 22:59N 26°05' W 080°07'0 0.0
2017-Oct-03 22:23N 26°05' W 080°07'0 0.0
2017-Oct-03 21:59N 26°05' W 080°07'0 0.0
2017-Oct-03 21:29N 26°05' W 080°07'0 0.0
2017-Oct-03 20:59N 26°05' W 080°07'0 0.0
2017-Oct-03 20:29N 26°05' W 080°07'0 0.0
2017-Oct-03 19:59N 26°05' W 080°07'0 0.0
2017-Oct-03 19:29N 26°05' W 080°07'0 0.0
2017-Oct-03 18:59N 26°05' W 080°07'0 0.0
2017-Oct-03 18:26N 26°05' W 080°07'0 0.0
2017-Oct-03 17:56N 26°05' W 080°07'0 0.0
2017-Oct-03 17:29N 26°05' W 080°07'0 0.0
2017-Oct-03 16:56N 26°05' W 080°07'0 0.0
2017-Oct-03 16:29N 26°05' W 080°07'0 0.0
2017-Oct-03 15:59N 26°05' W 080°07'0 0.0
2017-Oct-03 15:29N 26°05' W 080°07'0 0.0
2017-Oct-03 14:59N 26°05' W 080°07'0 0.0
2017-Oct-03 13:59N 26°05' W 080°07'0 0.0
2017-Oct-03 13:29N 26°05' W 080°07'0 0.0
2017-Oct-03 12:59N 26°05' W 080°07'0 0.0
2017-Oct-03 12:29N 26°05' W 080°07'0 0.0
2017-Oct-03 11:59N 26°05' W 080°07'0 0.0
2017-Oct-03 11:29N 26°05' W 080°07'0 0.0
2017-Oct-03 10:59N 26°05' W 080°07'0 0.0
2017-Oct-03 10:29N 26°05' W 080°07'0 0.0
2017-Oct-03 09:59N 26°05' W 080°07'0 0.0
2017-Oct-03 09:29N 26°05' W 080°07'0 0.0
2017-Oct-03 08:59N 26°05' W 080°07'0 0.0
2017-Oct-03 08:29N 26°05' W 080°07'0 0.0
2017-Oct-03 07:59N 26°05' W 080°07'0 0.0
2017-Oct-03 07:29N 26°05' W 080°07'0 0.0
2017-Oct-03 06:56N 26°05' W 080°07'0 0.0
2017-Oct-03 06:23N 26°05' W 080°07'0 0.0
2017-Oct-03 05:50N 26°05' W 080°07'0 0.0
2017-Oct-03 05:20N 26°05' W 080°07'0 0.0
2017-Oct-03 04:59N 26°05' W 080°07'0 0.0
2017-Oct-03 04:26N 26°05' W 080°07'0 0.0
2017-Oct-03 03:56N 26°05' W 080°07'0 0.0
2017-Oct-03 03:29N 26°05' W 080°07'0 0.0
2017-Oct-03 02:53N 26°05' W 080°07'0 0.0
2017-Oct-03 02:20N 26°05' W 080°07'0 0.0
2017-Oct-03 01:56N 26°05' W 080°07'0 0.0
2017-Oct-03 01:26N 26°05' W 080°07'0 0.0
2017-Oct-03 00:53N 26°05' W 080°07'0 0.0
2017-Oct-03 00:23N 26°05' W 080°07'0 0.0
2017-Oct-02 23:56N 26°05' W 080°07'0 0.0
2017-Oct-02 23:23N 26°05' W 080°07'0 0.0
2017-Oct-02 22:52N 26°05' W 080°07'0 0.0
2017-Oct-02 22:25N 26°05' W 080°07'0 0.0
2017-Oct-02 21:52N 26°05' W 080°07'0 0.0
2017-Oct-02 21:28N 26°05' W 080°07'0 0.0
2017-Oct-02 20:55N 26°05' W 080°07'0 0.0
2017-Oct-02 20:22N 26°05' W 080°07'0 0.0
2017-Oct-02 19:52N 26°05' W 080°07'0 0.0
2017-Oct-02 19:25N 26°05' W 080°07'0 0.0
2017-Oct-02 18:58N 26°05' W 080°07'0 0.0
2017-Oct-02 18:25N 26°05' W 080°07'0 0.0
2017-Oct-02 17:58N 26°05' W 080°07'0 0.0
2017-Oct-02 17:25N 26°05' W 080°07'0 0.0
2017-Oct-02 16:55N 26°05' W 080°07'0 0.0
2017-Oct-02 16:19N 26°05' W 080°07'0 0.0
2017-Oct-02 15:55N 26°05' W 080°07'0 0.0
2017-Oct-02 15:28N 26°05' W 080°07'0 0.0
2017-Oct-02 14:55N 26°05' W 080°07'0 0.0
2017-Oct-02 14:25N 26°05' W 080°07'0 0.0
2017-Oct-02 13:55N 26°05' W 080°07'0 0.0
2017-Oct-02 13:25N 26°05' W 080°07'0 0.0
2017-Oct-02 12:58N 26°05' W 080°07'0 0.0
2017-Oct-02 12:28N 26°05' W 080°07'0 0.1
2017-Oct-02 12:00N 26°05' W 080°07'1 3.0
2017-Oct-02 11:30N 26°06' W 080°05'1 2.2
2017-Oct-02 11:00N 26°06' W 080°04'1 1.9
2017-Oct-02 10:30N 26°07' W 080°05'0 0.1
2017-Oct-02 10:00N 26°07' W 080°05'0 0.0
2017-Oct-02 09:30N 26°07' W 080°05'0 0.0
2017-Oct-02 09:00N 26°07' W 080°05'0 0.0
2017-Oct-02 08:30N 26°07' W 080°05'0 0.1
2017-Oct-02 08:00N 26°07' W 080°05'0 0.0
2017-Oct-02 07:30N 26°07' W 080°05'0 0.0
2017-Oct-02 07:00N 26°07' W 080°05'0 0.0
2017-Oct-02 06:30N 26°07' W 080°05'0 0.0
2017-Oct-02 06:00N 26°07' W 080°05'0 0.1
2017-Oct-02 05:30N 26°07' W 080°05'0 0.0
2017-Oct-02 05:00N 26°07' W 080°05'0 0.0
2017-Oct-02 04:30N 26°07' W 080°05'0 0.0
2017-Oct-02 04:00N 26°07' W 080°05'0 0.0
2017-Oct-02 03:30N 26°07' W 080°05'0 0.0
2017-Oct-02 03:00N 26°07' W 080°05'0 0.0
2017-Oct-02 02:30N 26°07' W 080°05'0 0.0
2017-Oct-02 02:00N 26°07' W 080°05'0 0.0
2017-Oct-02 01:30N 26°07' W 080°05'0 0.0
2017-Oct-02 01:00N 26°07' W 080°05'0 0.0
2017-Oct-02 00:30N 26°07' W 080°05'0 0.1
2017-Oct-02 00:00N 26°07' W 080°05'0 0.0
2017-Oct-01 23:30N 26°07' W 080°05'0 0.0
2017-Oct-01 22:51N 26°07' W 080°05'0 0.0
2017-Oct-01 22:24N 26°07' W 080°05'0 0.0
2017-Oct-01 21:51N 26°07' W 080°05'0 0.1
2017-Oct-01 21:30N 26°07' W 080°05'0 0.1
2017-Oct-01 20:51N 26°07' W 080°05'0 0.0
2017-Oct-01 20:21N 26°07' W 080°05'0 0.0
2017-Oct-01 19:54N 26°07' W 080°05'0 0.0
2017-Oct-01 19:24N 26°07' W 080°05'0 0.0
2017-Oct-01 18:54N 26°07' W 080°05'0 0.1
2017-Oct-01 18:24N 26°07' W 080°05'0 0.0
2017-Oct-01 17:54N 26°07' W 080°05'0 0.1
2017-Oct-01 17:27N 26°07' W 080°05'0 0.0
2017-Oct-01 16:57N 26°07' W 080°05'0 0.3
2017-Oct-01 16:30N 26°07' W 080°05'4 8.7
2017-Oct-01 16:00N 26°05' W 080°00'612.6
2017-Oct-01 15:30N 26°01' W 079°55'713.2
2017-Oct-01 15:00N 25°56' W 079°49'613.1
2017-Oct-01 14:30N 25°52' W 079°44'612.3
2017-Oct-01 14:00N 25°47' W 079°41'713.7
2017-Oct-01 13:30N 25°40' W 079°41'612.6
2017-Oct-01 13:00N 25°34' W 079°40'  
2017-Sep-27 13:03N 29°44' W 095°08'0 5.6
2017-Sep-27 12:59N 29°44' W 095°09'4 6.0
2017-Sep-27 12:21N 29°43' W 095°13'1 0.0
2017-Sep-26 16:28N 29°43' W 095°14'2 4.0
2017-Sep-26 15:58N 29°44' W 095°12'3 6.8
2017-Sep-26 15:30N 29°44' W 095°09'4 7.3
2017-Sep-26 15:00N 29°46' W 095°05'4 9.0
2017-Sep-26 14:30N 29°43' W 095°01'510.6
2017-Sep-26 14:00N 29°38' W 094°58'611.8
2017-Sep-26 13:30N 29°33' W 094°55'711.9
2017-Sep-26 12:55N 29°27' W 094°51'  
Track history (hours):
 
Tides and Currents Weather Stations Pressure Air Temp Water Temp Dewpoint Dewpoint Depression Visibility Wind Speed Wind Dir Waves Ship Positions

Scm Elpida

Last reported at 2017-Oct-04 12:00 UTC. Time now 2017-Nov-20 13:29 UTC.
Position N 25°25' W 079°34'.
Warning: this ship's position is 47 days out of date.

Length 108 m; draft 5.6 m.

Type: Cargo ship. MMSI: 304188000.

Date/timePositionNaut miles runAvg speedWind from/ knotsBaromVisibWave heightAir tempDewpointWater temp
2017-Oct-04 12:00N 25°25' W 079°34'510.1
2017-Oct-04 11:30N 25°30' W 079°36'5 9.9
2017-Oct-04 10:59N 25°35' W 079°37'5 9.4
2017-Oct-04 10:30N 25°39' W 079°38'4 8.3
2017-Oct-04 10:00N 25°43' W 079°39'4 7.4
2017-Oct-04 09:30N 25°47' W 079°39'4 7.3
2017-Oct-04 09:00N 25°50' W 079°40'3 6.6
2017-Oct-04 08:30N 25°54' W 079°41'4 7.4
2017-Oct-04 08:00N 25°56' W 079°45'4 7.8
2017-Oct-04 07:30N 25°58' W 079°48'4 8.3
2017-Oct-04 07:00N 25°60' W 079°52'4 8.9
2017-Oct-04 06:30N 26°02' W 079°57'5 9.4
2017-Oct-04 06:00N 26°04' W 080°01'4 8.1
2017-Oct-04 05:30N 26°06' W 080°05'1 2.5
2017-Oct-04 04:57N 26°05' W 080°07'0 0.0
2017-Oct-04 04:24N 26°05' W 080°07'0 0.0
2017-Oct-04 04:00N 26°05' W 080°07'0 0.0
2017-Oct-04 03:30N 26°05' W 080°07'0 0.0
2017-Oct-04 02:57N 26°05' W 080°07'0 0.0
2017-Oct-04 02:27N 26°05' W 080°07'0 0.0
2017-Oct-04 02:00N 26°05' W 080°07'0 0.0
2017-Oct-04 01:27N 26°05' W 080°07'0 0.0
2017-Oct-04 01:00N 26°05' W 080°07'0 0.0
2017-Oct-04 00:30N 26°05' W 080°07'0 0.0
2017-Oct-03 23:59N 26°05' W 080°07'0 0.0
2017-Oct-03 23:29N 26°05' W 080°07'0 0.0
2017-Oct-03 22:59N 26°05' W 080°07'0 0.0
2017-Oct-03 22:23N 26°05' W 080°07'0 0.0
2017-Oct-03 21:59N 26°05' W 080°07'0 0.0
2017-Oct-03 21:29N 26°05' W 080°07'0 0.0
2017-Oct-03 20:59N 26°05' W 080°07'0 0.0
2017-Oct-03 20:29N 26°05' W 080°07'0 0.0
2017-Oct-03 19:59N 26°05' W 080°07'0 0.0
2017-Oct-03 19:29N 26°05' W 080°07'0 0.0
2017-Oct-03 18:59N 26°05' W 080°07'0 0.0
2017-Oct-03 18:26N 26°05' W 080°07'0 0.0
2017-Oct-03 17:56N 26°05' W 080°07'0 0.0
2017-Oct-03 17:29N 26°05' W 080°07'0 0.0
2017-Oct-03 16:56N 26°05' W 080°07'0 0.0
2017-Oct-03 16:29N 26°05' W 080°07'0 0.0
2017-Oct-03 15:59N 26°05' W 080°07'0 0.0
2017-Oct-03 15:29N 26°05' W 080°07'0 0.0
2017-Oct-03 14:59N 26°05' W 080°07'0 0.0
2017-Oct-03 13:59N 26°05' W 080°07'0 0.0
2017-Oct-03 13:29N 26°05' W 080°07'0 0.0
2017-Oct-03 12:59N 26°05' W 080°07'0 0.0
2017-Oct-03 12:29N 26°05' W 080°07'0 0.0
2017-Oct-03 11:59N 26°05' W 080°07'0 0.0
2017-Oct-03 11:29N 26°05' W 080°07'0 0.0
2017-Oct-03 10:59N 26°05' W 080°07'0 0.0
2017-Oct-03 10:29N 26°05' W 080°07'0 0.0
2017-Oct-03 09:59N 26°05' W 080°07'0 0.0
2017-Oct-03 09:29N 26°05' W 080°07'0 0.0
2017-Oct-03 08:59N 26°05' W 080°07'0 0.0
2017-Oct-03 08:29N 26°05' W 080°07'0 0.0
2017-Oct-03 07:59N 26°05' W 080°07'0 0.0
2017-Oct-03 07:29N 26°05' W 080°07'0 0.0
2017-Oct-03 06:56N 26°05' W 080°07'0 0.0
2017-Oct-03 06:23N 26°05' W 080°07'0 0.0
2017-Oct-03 05:50N 26°05' W 080°07'0 0.0
2017-Oct-03 05:20N 26°05' W 080°07'0 0.0
2017-Oct-03 04:59N 26°05' W 080°07'0 0.0
2017-Oct-03 04:26N 26°05' W 080°07'0 0.0
2017-Oct-03 03:56N 26°05' W 080°07'0 0.0
2017-Oct-03 03:29N 26°05' W 080°07'0 0.0
2017-Oct-03 02:53N 26°05' W 080°07'0 0.0
2017-Oct-03 02:20N 26°05' W 080°07'0 0.0
2017-Oct-03 01:56N 26°05' W 080°07'0 0.0
2017-Oct-03 01:26N 26°05' W 080°07'0 0.0
2017-Oct-03 00:53N 26°05' W 080°07'0 0.0
2017-Oct-03 00:23N 26°05' W 080°07'0 0.0
2017-Oct-02 23:56N 26°05' W 080°07'0 0.0
2017-Oct-02 23:23N 26°05' W 080°07'0 0.0
2017-Oct-02 22:52N 26°05' W 080°07'0 0.0
2017-Oct-02 22:25N 26°05' W 080°07'0 0.0
2017-Oct-02 21:52N 26°05' W 080°07'0 0.0
2017-Oct-02 21:28N 26°05' W 080°07'0 0.0
2017-Oct-02 20:55N 26°05' W 080°07'0 0.0
2017-Oct-02 20:22N 26°05' W 080°07'0 0.0
2017-Oct-02 19:52N 26°05' W 080°07'0 0.0
2017-Oct-02 19:25N 26°05' W 080°07'0 0.0
2017-Oct-02 18:58N 26°05' W 080°07'0 0.0
2017-Oct-02 18:25N 26°05' W 080°07'0 0.0
2017-Oct-02 17:58N 26°05' W 080°07'0 0.0
2017-Oct-02 17:25N 26°05' W 080°07'0 0.0
2017-Oct-02 16:55N 26°05' W 080°07'0 0.0
2017-Oct-02 16:19N 26°05' W 080°07'0 0.0
2017-Oct-02 15:55N 26°05' W 080°07'0 0.0
2017-Oct-02 15:28N 26°05' W 080°07'0 0.0
2017-Oct-02 14:55N 26°05' W 080°07'0 0.0
2017-Oct-02 14:25N 26°05' W 080°07'0 0.0
2017-Oct-02 13:55N 26°05' W 080°07'0 0.0
2017-Oct-02 13:25N 26°05' W 080°07'0 0.0
2017-Oct-02 12:58N 26°05' W 080°07'0 0.0
2017-Oct-02 12:28N 26°05' W 080°07'0 0.1
2017-Oct-02 12:00N 26°05' W 080°07'1 3.0
2017-Oct-02 11:30N 26°06' W 080°05'1 2.2
2017-Oct-02 11:00N 26°06' W 080°04'1 1.9
2017-Oct-02 10:30N 26°07' W 080°05'0 0.1
2017-Oct-02 10:00N 26°07' W 080°05'0 0.0
2017-Oct-02 09:30N 26°07' W 080°05'0 0.0
2017-Oct-02 09:00N 26°07' W 080°05'0 0.0
2017-Oct-02 08:30N 26°07' W 080°05'0 0.1
2017-Oct-02 08:00N 26°07' W 080°05'0 0.0
2017-Oct-02 07:30N 26°07' W 080°05'0 0.0
2017-Oct-02 07:00N 26°07' W 080°05'0 0.0
2017-Oct-02 06:30N 26°07' W 080°05'0 0.0
2017-Oct-02 06:00N 26°07' W 080°05'0 0.1
2017-Oct-02 05:30N 26°07' W 080°05'0 0.0
2017-Oct-02 05:00N 26°07' W 080°05'0 0.0
2017-Oct-02 04:30N 26°07' W 080°05'0 0.0
2017-Oct-02 04:00N 26°07' W 080°05'0 0.0
2017-Oct-02 03:30N 26°07' W 080°05'0 0.0
2017-Oct-02 03:00N 26°07' W 080°05'0 0.0
2017-Oct-02 02:30N 26°07' W 080°05'0 0.0
2017-Oct-02 02:00N 26°07' W 080°05'0 0.0
2017-Oct-02 01:30N 26°07' W 080°05'0 0.0
2017-Oct-02 01:00N 26°07' W 080°05'0 0.0
2017-Oct-02 00:30N 26°07' W 080°05'0 0.1
2017-Oct-02 00:00N 26°07' W 080°05'0 0.0
2017-Oct-01 23:30N 26°07' W 080°05'0 0.0
2017-Oct-01 22:51N 26°07' W 080°05'0 0.0
2017-Oct-01 22:24N 26°07' W 080°05'0 0.0
2017-Oct-01 21:51N 26°07' W 080°05'0 0.1
2017-Oct-01 21:30N 26°07' W 080°05'0 0.1
2017-Oct-01 20:51N 26°07' W 080°05'0 0.0
2017-Oct-01 20:21N 26°07' W 080°05'0 0.0
2017-Oct-01 19:54N 26°07' W 080°05'0 0.0
2017-Oct-01 19:24N 26°07' W 080°05'0 0.0
2017-Oct-01 18:54N 26°07' W 080°05'0 0.1
2017-Oct-01 18:24N 26°07' W 080°05'0 0.0
2017-Oct-01 17:54N 26°07' W 080°05'0 0.1
2017-Oct-01 17:27N 26°07' W 080°05'0 0.0
2017-Oct-01 16:57N 26°07' W 080°05'0 0.3
2017-Oct-01 16:30N 26°07' W 080°05'4 8.7
2017-Oct-01 16:00N 26°05' W 080°00'612.6
2017-Oct-01 15:30N 26°01' W 079°55'713.2
2017-Oct-01 15:00N 25°56' W 079°49'613.1
2017-Oct-01 14:30N 25°52' W 079°44'612.3
2017-Oct-01 14:00N 25°47' W 079°41'713.7
2017-Oct-01 13:30N 25°40' W 079°41'612.6
2017-Oct-01 13:00N 25°34' W 079°40'  
2017-Sep-27 13:03N 29°44' W 095°08'0 5.6
2017-Sep-27 12:59N 29°44' W 095°09'4 6.0
2017-Sep-27 12:21N 29°43' W 095°13'1 0.0
2017-Sep-26 16:28N 29°43' W 095°14'2 4.0
2017-Sep-26 15:58N 29°44' W 095°12'3 6.8
2017-Sep-26 15:30N 29°44' W 095°09'4 7.3
2017-Sep-26 15:00N 29°46' W 095°05'4 9.0
2017-Sep-26 14:30N 29°43' W 095°01'510.6
2017-Sep-26 14:00N 29°38' W 094°58'611.8
2017-Sep-26 13:30N 29°33' W 094°55'711.9
2017-Sep-26 12:55N 29°27' W 094°51'  

Dump ship's entire track history